sensor_id;sensor_type;location;lat;lon;timestamp;P1;durP1;ratioP1;P2;durP2;ratioP2
7199;SDS011;3641;49.082;8.200;2023-11-19T00:01:41;4.13;;;2.15;;
7199;SDS011;3641;49.082;8.200;2023-11-19T00:04:08;4.43;;;2.40;;
7199;SDS011;3641;49.082;8.200;2023-11-19T00:06:34;5.22;;;2.30;;
7199;SDS011;3641;49.082;8.200;2023-11-19T00:09:01;3.83;;;2.30;;
7199;SDS011;3641;49.082;8.200;2023-11-19T00:11:29;3.55;;;2.33;;
7199;SDS011;3641;49.082;8.200;2023-11-19T00:13:55;4.65;;;2.22;;
7199;SDS011;3641;49.082;8.200;2023-11-19T00:16:22;3.90;;;2.42;;
7199;SDS011;3641;49.082;8.200;2023-11-19T00:18:49;3.90;;;2.25;;
7199;SDS011;3641;49.082;8.200;2023-11-19T00:21:16;5.10;;;2.50;;
7199;SDS011;3641;49.082;8.200;2023-11-19T00:23:42;4.97;;;2.70;;
7199;SDS011;3641;49.082;8.200;2023-11-19T00:26:09;5.60;;;2.58;;
7199;SDS011;3641;49.082;8.200;2023-11-19T00:28:35;4.38;;;2.55;;
7199;SDS011;3641;49.082;8.200;2023-11-19T00:31:03;3.88;;;2.53;;
7199;SDS011;3641;49.082;8.200;2023-11-19T00:33:30;3.92;;;2.17;;
7199;SDS011;3641;49.082;8.200;2023-11-19T00:35:58;5.90;;;2.17;;
7199;SDS011;3641;49.082;8.200;2023-11-19T00:38:24;5.57;;;2.78;;
7199;SDS011;3641;49.082;8.200;2023-11-19T00:40:51;4.00;;;2.28;;
7199;SDS011;3641;49.082;8.200;2023-11-19T00:43:17;4.28;;;2.45;;
7199;SDS011;3641;49.082;8.200;2023-11-19T00:45:47;4.03;;;2.30;;
7199;SDS011;3641;49.082;8.200;2023-11-19T00:48:15;4.38;;;2.63;;
7199;SDS011;3641;49.082;8.200;2023-11-19T00:50:41;5.40;;;2.70;;
7199;SDS011;3641;49.082;8.200;2023-11-19T00:53:10;4.82;;;2.67;;
7199;SDS011;3641;49.082;8.200;2023-11-19T00:55:37;5.88;;;2.60;;
7199;SDS011;3641;49.082;8.200;2023-11-19T00:58:03;4.40;;;2.50;;
7199;SDS011;3641;49.082;8.200;2023-11-19T01:00:30;4.38;;;2.65;;
7199;SDS011;3641;49.082;8.200;2023-11-19T01:02:57;4.40;;;2.55;;
7199;SDS011;3641;49.082;8.200;2023-11-19T01:05:25;6.03;;;3.15;;
7199;SDS011;3641;49.082;8.200;2023-11-19T01:07:52;3.90;;;2.80;;
7199;SDS011;3641;49.082;8.200;2023-11-19T01:10:20;5.50;;;3.22;;
7199;SDS011;3641;49.082;8.200;2023-11-19T01:12:47;4.60;;;2.90;;
7199;SDS011;3641;49.082;8.200;2023-11-19T01:15:13;4.60;;;3.08;;
7199;SDS011;3641;49.082;8.200;2023-11-19T01:17:39;5.47;;;3.03;;
7199;SDS011;3641;49.082;8.200;2023-11-19T01:20:06;6.10;;;3.60;;
7199;SDS011;3641;49.082;8.200;2023-11-19T01:22:33;8.50;;;3.60;;
7199;SDS011;3641;49.082;8.200;2023-11-19T01:25:00;5.45;;;3.08;;
7199;SDS011;3641;49.082;8.200;2023-11-19T01:27:28;6.40;;;3.60;;
7199;SDS011;3641;49.082;8.200;2023-11-19T01:29:54;5.03;;;3.20;;
7199;SDS011;3641;49.082;8.200;2023-11-19T01:32:20;11.18;;;3.60;;
7199;SDS011;3641;49.082;8.200;2023-11-19T01:34:49;5.63;;;3.22;;
7199;SDS011;3641;49.082;8.200;2023-11-19T01:37:15;5.47;;;3.42;;
7199;SDS011;3641;49.082;8.200;2023-11-19T01:39:43;7.97;;;3.65;;
7199;SDS011;3641;49.082;8.200;2023-11-19T01:42:09;4.80;;;3.35;;
7199;SDS011;3641;49.082;8.200;2023-11-19T01:44:38;5.15;;;3.40;;
7199;SDS011;3641;49.082;8.200;2023-11-19T01:47:04;5.70;;;3.13;;
7199;SDS011;3641;49.082;8.200;2023-11-19T01:49:32;6.32;;;3.53;;
7199;SDS011;3641;49.082;8.200;2023-11-19T01:51:59;5.35;;;3.08;;
7199;SDS011;3641;49.082;8.200;2023-11-19T01:54:26;6.40;;;3.55;;
7199;SDS011;3641;49.082;8.200;2023-11-19T01:56:54;6.35;;;3.60;;
7199;SDS011;3641;49.082;8.200;2023-11-19T01:59:23;6.20;;;3.22;;
7199;SDS011;3641;49.082;8.200;2023-11-19T02:01:53;5.78;;;3.58;;
7199;SDS011;3641;49.082;8.200;2023-11-19T02:04:20;5.70;;;3.90;;
7199;SDS011;3641;49.082;8.200;2023-11-19T02:06:46;5.53;;;3.55;;
7199;SDS011;3641;49.082;8.200;2023-11-19T02:09:15;5.72;;;3.33;;
7199;SDS011;3641;49.082;8.200;2023-11-19T02:11:44;4.57;;;3.05;;
7199;SDS011;3641;49.082;8.200;2023-11-19T02:14:14;4.45;;;2.83;;
7199;SDS011;3641;49.082;8.200;2023-11-19T02:16:40;4.75;;;3.05;;
7199;SDS011;3641;49.082;8.200;2023-11-19T02:19:08;6.25;;;3.20;;
7199;SDS011;3641;49.082;8.200;2023-11-19T02:21:35;5.35;;;3.47;;
7199;SDS011;3641;49.082;8.200;2023-11-19T02:24:02;4.28;;;2.97;;
7199;SDS011;3641;49.082;8.200;2023-11-19T02:26:36;4.43;;;2.97;;
7199;SDS011;3641;49.082;8.200;2023-11-19T02:29:07;5.18;;;3.35;;
7199;SDS011;3641;49.082;8.200;2023-11-19T02:31:33;6.93;;;3.65;;
7199;SDS011;3641;49.082;8.200;2023-11-19T02:34:02;4.80;;;3.08;;
7199;SDS011;3641;49.082;8.200;2023-11-19T02:36:38;5.90;;;3.35;;
7199;SDS011;3641;49.082;8.200;2023-11-19T02:42:05;6.00;;;3.53;;
7199;SDS011;3641;49.082;8.200;2023-11-19T02:44:40;4.75;;;2.90;;
7199;SDS011;3641;49.082;8.200;2023-11-19T02:47:16;6.22;;;3.58;;
7199;SDS011;3641;49.082;8.200;2023-11-19T02:49:44;5.50;;;3.53;;
7199;SDS011;3641;49.082;8.200;2023-11-19T02:52:11;6.43;;;3.83;;
7199;SDS011;3641;49.082;8.200;2023-11-19T02:54:40;5.13;;;3.28;;
7199;SDS011;3641;49.082;8.200;2023-11-19T02:57:07;5.60;;;3.38;;
7199;SDS011;3641;49.082;8.200;2023-11-19T02:59:40;6.75;;;3.58;;
7199;SDS011;3641;49.082;8.200;2023-11-19T03:02:10;5.25;;;3.53;;
7199;SDS011;3641;49.082;8.200;2023-11-19T03:04:41;5.07;;;3.25;;
7199;SDS011;3641;49.082;8.200;2023-11-19T03:07:10;4.72;;;3.17;;
7199;SDS011;3641;49.082;8.200;2023-11-19T03:09:38;4.60;;;3.08;;
7199;SDS011;3641;49.082;8.200;2023-11-19T03:12:09;5.10;;;3.00;;
7199;SDS011;3641;49.082;8.200;2023-11-19T03:14:36;4.97;;;3.17;;
7199;SDS011;3641;49.082;8.200;2023-11-19T03:17:09;4.90;;;3.00;;
7199;SDS011;3641;49.082;8.200;2023-11-19T03:19:36;4.25;;;2.67;;
7199;SDS011;3641;49.082;8.200;2023-11-19T03:22:06;4.50;;;3.03;;
7199;SDS011;3641;49.082;8.200;2023-11-19T03:24:38;6.07;;;3.10;;
7199;SDS011;3641;49.082;8.200;2023-11-19T03:27:05;5.38;;;3.00;;
7199;SDS011;3641;49.082;8.200;2023-11-19T03:29:31;6.13;;;2.90;;
7199;SDS011;3641;49.082;8.200;2023-11-19T03:32:02;5.30;;;3.33;;
7199;SDS011;3641;49.082;8.200;2023-11-19T03:34:29;5.47;;;3.40;;
7199;SDS011;3641;49.082;8.200;2023-11-19T03:36:57;7.57;;;3.50;;
7199;SDS011;3641;49.082;8.200;2023-11-19T03:39:23;5.85;;;3.35;;
7199;SDS011;3641;49.082;8.200;2023-11-19T03:41:52;5.68;;;3.42;;
7199;SDS011;3641;49.082;8.200;2023-11-19T03:44:19;6.85;;;3.17;;
7199;SDS011;3641;49.082;8.200;2023-11-19T03:46:46;5.93;;;3.35;;
7199;SDS011;3641;49.082;8.200;2023-11-19T03:49:14;7.18;;;3.22;;
7199;SDS011;3641;49.082;8.200;2023-11-19T03:51:40;8.07;;;4.28;;
7199;SDS011;3641;49.082;8.200;2023-11-19T03:54:07;7.30;;;3.92;;
7199;SDS011;3641;49.082;8.200;2023-11-19T03:56:33;6.45;;;3.65;;
7199;SDS011;3641;49.082;8.200;2023-11-19T03:59:00;8.18;;;4.25;;
7199;SDS011;3641;49.082;8.200;2023-11-19T04:01:26;6.60;;;3.67;;
7199;SDS011;3641;49.082;8.200;2023-11-19T04:03:52;6.40;;;4.20;;
7199;SDS011;3641;49.082;8.200;2023-11-19T04:06:22;6.20;;;3.95;;
7199;SDS011;3641;49.082;8.200;2023-11-19T04:08:48;8.50;;;4.03;;
7199;SDS011;3641;49.082;8.200;2023-11-19T04:11:15;7.95;;;4.43;;
7199;SDS011;3641;49.082;8.200;2023-11-19T04:13:41;10.07;;;4.43;;
7199;SDS011;3641;49.082;8.200;2023-11-19T04:16:08;6.13;;;4.00;;
7199;SDS011;3641;49.082;8.200;2023-11-19T04:18:34;6.90;;;4.28;;
7199;SDS011;3641;49.082;8.200;2023-11-19T04:21:00;6.88;;;4.35;;
7199;SDS011;3641;49.082;8.200;2023-11-19T04:23:28;7.78;;;4.38;;
7199;SDS011;3641;49.082;8.200;2023-11-19T04:25:54;7.13;;;4.00;;
7199;SDS011;3641;49.082;8.200;2023-11-19T04:28:21;7.28;;;4.13;;
7199;SDS011;3641;49.082;8.200;2023-11-19T04:30:48;6.40;;;3.47;;
7199;SDS011;3641;49.082;8.200;2023-11-19T04:33:14;6.28;;;3.63;;
7199;SDS011;3641;49.082;8.200;2023-11-19T04:35:41;7.82;;;3.92;;
7199;SDS011;3641;49.082;8.200;2023-11-19T04:38:07;6.28;;;3.88;;
7199;SDS011;3641;49.082;8.200;2023-11-19T04:40:35;8.57;;;4.47;;
7199;SDS011;3641;49.082;8.200;2023-11-19T04:43:01;6.07;;;3.55;;
7199;SDS011;3641;49.082;8.200;2023-11-19T04:45:27;6.55;;;3.47;;
7199;SDS011;3641;49.082;8.200;2023-11-19T04:47:54;10.55;;;4.20;;
7199;SDS011;3641;49.082;8.200;2023-11-19T04:50:20;5.57;;;3.63;;
7199;SDS011;3641;49.082;8.200;2023-11-19T04:52:47;6.00;;;3.35;;
7199;SDS011;3641;49.082;8.200;2023-11-19T04:55:13;5.25;;;3.60;;
7199;SDS011;3641;49.082;8.200;2023-11-19T04:57:42;7.00;;;3.80;;
7199;SDS011;3641;49.082;8.200;2023-11-19T05:00:09;7.05;;;3.35;;
7199;SDS011;3641;49.082;8.200;2023-11-19T05:02:37;7.28;;;3.33;;
7199;SDS011;3641;49.082;8.200;2023-11-19T05:05:03;6.70;;;3.58;;
7199;SDS011;3641;49.082;8.200;2023-11-19T05:07:31;6.32;;;3.00;;
7199;SDS011;3641;49.082;8.200;2023-11-19T05:09:57;5.05;;;3.38;;
7199;SDS011;3641;49.082;8.200;2023-11-19T05:12:24;5.03;;;2.70;;
7199;SDS011;3641;49.082;8.200;2023-11-19T05:14:52;4.22;;;2.60;;
7199;SDS011;3641;49.082;8.200;2023-11-19T05:17:18;8.80;;;3.00;;
7199;SDS011;3641;49.082;8.200;2023-11-19T05:19:45;4.22;;;2.70;;
7199;SDS011;3641;49.082;8.200;2023-11-19T05:22:12;5.35;;;2.63;;
7199;SDS011;3641;49.082;8.200;2023-11-19T05:24:39;5.70;;;2.78;;
7199;SDS011;3641;49.082;8.200;2023-11-19T05:27:05;6.20;;;2.80;;
7199;SDS011;3641;49.082;8.200;2023-11-19T05:29:32;5.60;;;2.47;;
7199;SDS011;3641;49.082;8.200;2023-11-19T05:32:00;5.50;;;2.40;;
7199;SDS011;3641;49.082;8.200;2023-11-19T05:34:27;8.27;;;2.40;;
7199;SDS011;3641;49.082;8.200;2023-11-19T05:36:53;4.15;;;2.33;;
7199;SDS011;3641;49.082;8.200;2023-11-19T05:39:20;3.70;;;2.25;;
7199;SDS011;3641;49.082;8.200;2023-11-19T05:41:46;5.40;;;2.20;;
7199;SDS011;3641;49.082;8.200;2023-11-19T05:44:13;5.28;;;2.00;;
7199;SDS011;3641;49.082;8.200;2023-11-19T05:46:39;5.18;;;1.90;;
7199;SDS011;3641;49.082;8.200;2023-11-19T05:49:09;4.07;;;1.67;;
7199;SDS011;3641;49.082;8.200;2023-11-19T05:51:36;5.05;;;2.00;;
7199;SDS011;3641;49.082;8.200;2023-11-19T05:54:03;3.10;;;1.73;;
7199;SDS011;3641;49.082;8.200;2023-11-19T05:56:31;4.43;;;1.90;;
7199;SDS011;3641;49.082;8.200;2023-11-19T05:58:58;3.58;;;1.65;;
7199;SDS011;3641;49.082;8.200;2023-11-19T06:01:25;4.28;;;1.50;;
7199;SDS011;3641;49.082;8.200;2023-11-19T06:03:51;2.65;;;1.52;;
7199;SDS011;3641;49.082;8.200;2023-11-19T06:06:19;4.05;;;1.70;;
7199;SDS011;3641;49.082;8.200;2023-11-19T06:08:46;3.30;;;1.40;;
7199;SDS011;3641;49.082;8.200;2023-11-19T06:11:12;2.45;;;1.40;;
7199;SDS011;3641;49.082;8.200;2023-11-19T06:13:43;3.33;;;1.98;;
7199;SDS011;3641;49.082;8.200;2023-11-19T06:16:10;2.30;;;1.48;;
7199;SDS011;3641;49.082;8.200;2023-11-19T06:18:37;3.58;;;1.60;;
7199;SDS011;3641;49.082;8.200;2023-11-19T06:21:03;4.40;;;1.27;;
7199;SDS011;3641;49.082;8.200;2023-11-19T06:23:31;3.45;;;1.30;;
7199;SDS011;3641;49.082;8.200;2023-11-19T06:25:58;2.15;;;1.30;;
7199;SDS011;3641;49.082;8.200;2023-11-19T06:28:24;2.97;;;1.13;;
7199;SDS011;3641;49.082;8.200;2023-11-19T06:30:51;4.40;;;1.50;;
7199;SDS011;3641;49.082;8.200;2023-11-19T06:33:17;2.90;;;1.30;;
7199;SDS011;3641;49.082;8.200;2023-11-19T06:35:44;3.15;;;1.40;;
7199;SDS011;3641;49.082;8.200;2023-11-19T06:38:10;2.83;;;1.52;;
7199;SDS011;3641;49.082;8.200;2023-11-19T06:40:38;3.13;;;1.45;;
7199;SDS011;3641;49.082;8.200;2023-11-19T06:43:06;2.20;;;1.10;;
7199;SDS011;3641;49.082;8.200;2023-11-19T06:45:33;2.78;;;1.15;;
7199;SDS011;3641;49.082;8.200;2023-11-19T06:48:01;2.75;;;1.05;;
7199;SDS011;3641;49.082;8.200;2023-11-19T06:50:29;2.80;;;1.33;;
7199;SDS011;3641;49.082;8.200;2023-11-19T06:52:56;3.75;;;1.13;;
7199;SDS011;3641;49.082;8.200;2023-11-19T06:55:22;2.20;;;1.20;;
7199;SDS011;3641;49.082;8.200;2023-11-19T06:57:50;4.22;;;1.13;;
7199;SDS011;3641;49.082;8.200;2023-11-19T07:00:16;2.25;;;1.17;;
7199;SDS011;3641;49.082;8.200;2023-11-19T07:02:43;1.83;;;1.02;;
7199;SDS011;3641;49.082;8.200;2023-11-19T07:05:10;2.60;;;1.25;;
7199;SDS011;3641;49.082;8.200;2023-11-19T07:07:38;3.50;;;1.30;;
7199;SDS011;3641;49.082;8.200;2023-11-19T07:10:05;3.47;;;1.20;;
7199;SDS011;3641;49.082;8.200;2023-11-19T07:12:34;2.28;;;1.10;;
7199;SDS011;3641;49.082;8.200;2023-11-19T07:15:02;2.33;;;1.10;;
7199;SDS011;3641;49.082;8.200;2023-11-19T07:17:29;4.47;;;1.30;;
7199;SDS011;3641;49.082;8.200;2023-11-19T07:19:56;3.17;;;1.10;;
7199;SDS011;3641;49.082;8.200;2023-11-19T07:22:24;1.67;;;1.10;;
7199;SDS011;3641;49.082;8.200;2023-11-19T07:24:50;3.35;;;1.40;;
7199;SDS011;3641;49.082;8.200;2023-11-19T07:27:18;3.10;;;1.20;;
7199;SDS011;3641;49.082;8.200;2023-11-19T07:29:44;3.72;;;1.20;;
7199;SDS011;3641;49.082;8.200;2023-11-19T07:32:12;2.05;;;1.00;;
7199;SDS011;3641;49.082;8.200;2023-11-19T07:34:39;4.70;;;1.08;;
7199;SDS011;3641;49.082;8.200;2023-11-19T07:37:06;3.05;;;1.30;;
7199;SDS011;3641;49.082;8.200;2023-11-19T07:39:32;5.95;;;1.25;;
7199;SDS011;3641;49.082;8.200;2023-11-19T07:41:59;3.33;;;1.30;;
7199;SDS011;3641;49.082;8.200;2023-11-19T07:44:25;4.53;;;1.20;;
7199;SDS011;3641;49.082;8.200;2023-11-19T07:46:52;4.85;;;1.13;;
7199;SDS011;3641;49.082;8.200;2023-11-19T07:49:20;1.95;;;1.17;;
7199;SDS011;3641;49.082;8.200;2023-11-19T07:51:47;3.83;;;1.30;;
7199;SDS011;3641;49.082;8.200;2023-11-19T07:54:13;4.03;;;1.00;;
7199;SDS011;3641;49.082;8.200;2023-11-19T07:56:39;4.45;;;1.10;;
7199;SDS011;3641;49.082;8.200;2023-11-19T07:59:06;3.78;;;1.10;;
7199;SDS011;3641;49.082;8.200;2023-11-19T08:01:32;2.55;;;1.20;;
7199;SDS011;3641;49.082;8.200;2023-11-19T08:03:59;2.60;;;1.25;;
7199;SDS011;3641;49.082;8.200;2023-11-19T08:06:28;2.80;;;1.45;;
7199;SDS011;3641;49.082;8.200;2023-11-19T08:08:54;3.75;;;1.27;;
7199;SDS011;3641;49.082;8.200;2023-11-19T08:11:21;2.75;;;1.33;;
7199;SDS011;3641;49.082;8.200;2023-11-19T08:13:47;2.53;;;1.13;;
7199;SDS011;3641;49.082;8.200;2023-11-19T08:16:13;2.10;;;1.30;;
7199;SDS011;3641;49.082;8.200;2023-11-19T08:18:41;2.45;;;1.35;;
7199;SDS011;3641;49.082;8.200;2023-11-19T08:21:08;4.22;;;1.55;;
7199;SDS011;3641;49.082;8.200;2023-11-19T08:23:35;2.45;;;1.30;;
7199;SDS011;3641;49.082;8.200;2023-11-19T08:26:03;3.85;;;1.15;;
7199;SDS011;3641;49.082;8.200;2023-11-19T08:28:30;4.53;;;1.30;;
7199;SDS011;3641;49.082;8.200;2023-11-19T08:30:59;3.75;;;1.40;;
7199;SDS011;3641;49.082;8.200;2023-11-19T08:33:26;4.05;;;1.48;;
7199;SDS011;3641;49.082;8.200;2023-11-19T08:35:52;4.80;;;1.02;;
7199;SDS011;3641;49.082;8.200;2023-11-19T08:38:19;4.28;;;1.33;;
7199;SDS011;3641;49.082;8.200;2023-11-19T08:40:46;4.00;;;1.35;;
7199;SDS011;3641;49.082;8.200;2023-11-19T08:43:13;3.58;;;1.08;;
7199;SDS011;3641;49.082;8.200;2023-11-19T08:45:39;5.78;;;1.23;;
7199;SDS011;3641;49.082;8.200;2023-11-19T08:48:06;4.13;;;1.13;;
7199;SDS011;3641;49.082;8.200;2023-11-19T08:50:32;3.72;;;1.10;;
7199;SDS011;3641;49.082;8.200;2023-11-19T08:52:58;1.83;;;1.05;;
7199;SDS011;3641;49.082;8.200;2023-11-19T08:55:25;2.63;;;1.20;;
7199;SDS011;3641;49.082;8.200;2023-11-19T08:57:53;4.45;;;1.48;;
7199;SDS011;3641;49.082;8.200;2023-11-19T09:00:20;2.33;;;1.25;;
7199;SDS011;3641;49.082;8.200;2023-11-19T09:02:46;2.83;;;1.30;;
7199;SDS011;3641;49.082;8.200;2023-11-19T09:05:12;5.00;;;1.52;;
7199;SDS011;3641;49.082;8.200;2023-11-19T09:07:39;4.22;;;1.60;;
7199;SDS011;3641;49.082;8.200;2023-11-19T09:10:05;2.58;;;1.20;;
7199;SDS011;3641;49.082;8.200;2023-11-19T09:12:33;4.18;;;1.20;;
7199;SDS011;3641;49.082;8.200;2023-11-19T09:15:01;2.67;;;1.30;;
7199;SDS011;3641;49.082;8.200;2023-11-19T09:17:28;5.03;;;1.95;;
7199;SDS011;3641;49.082;8.200;2023-11-19T09:19:55;3.15;;;1.40;;
7199;SDS011;3641;49.082;8.200;2023-11-19T09:22:21;3.75;;;1.15;;
7199;SDS011;3641;49.082;8.200;2023-11-19T09:24:48;2.47;;;1.50;;
7199;SDS011;3641;49.082;8.200;2023-11-19T09:27:14;2.63;;;1.17;;
7199;SDS011;3641;49.082;8.200;2023-11-19T09:29:41;2.05;;;1.23;;
7199;SDS011;3641;49.082;8.200;2023-11-19T09:32:09;2.88;;;1.20;;
7199;SDS011;3641;49.082;8.200;2023-11-19T09:34:35;1.83;;;0.90;;
7199;SDS011;3641;49.082;8.200;2023-11-19T09:37:02;1.52;;;0.88;;
7199;SDS011;3641;49.082;8.200;2023-11-19T09:39:28;1.95;;;0.80;;
7199;SDS011;3641;49.082;8.200;2023-11-19T09:41:55;3.75;;;1.10;;
7199;SDS011;3641;49.082;8.200;2023-11-19T09:44:22;3.85;;;0.98;;
7199;SDS011;3641;49.082;8.200;2023-11-19T09:46:50;3.45;;;1.70;;
7199;SDS011;3641;49.082;8.200;2023-11-19T09:49:18;4.03;;;0.90;;
7199;SDS011;3641;49.082;8.200;2023-11-19T09:51:48;3.45;;;0.98;;
7199;SDS011;3641;49.082;8.200;2023-11-19T09:54:15;1.35;;;0.90;;
7199;SDS011;3641;49.082;8.200;2023-11-19T09:56:41;3.03;;;1.10;;
7199;SDS011;3641;49.082;8.200;2023-11-19T09:59:09;3.35;;;1.42;;
7199;SDS011;3641;49.082;8.200;2023-11-19T10:01:36;3.33;;;1.02;;
7199;SDS011;3641;49.082;8.200;2023-11-19T10:04:03;2.80;;;0.80;;
7199;SDS011;3641;49.082;8.200;2023-11-19T10:06:33;5.35;;;1.10;;
7199;SDS011;3641;49.082;8.200;2023-11-19T10:08:59;4.22;;;0.70;;
7199;SDS011;3641;49.082;8.200;2023-11-19T10:11:26;4.13;;;0.82;;
7199;SDS011;3641;49.082;8.200;2023-11-19T10:13:53;3.92;;;0.93;;
7199;SDS011;3641;49.082;8.200;2023-11-19T10:16:20;1.83;;;0.80;;
7199;SDS011;3641;49.082;8.200;2023-11-19T10:18:46;3.60;;;1.70;;
7199;SDS011;3641;49.082;8.200;2023-11-19T10:21:16;5.22;;;1.40;;
7199;SDS011;3641;49.082;8.200;2023-11-19T10:23:51;8.02;;;0.98;;
7199;SDS011;3641;49.082;8.200;2023-11-19T10:26:19;2.35;;;0.82;;
7199;SDS011;3641;49.082;8.200;2023-11-19T10:28:46;4.55;;;1.30;;
7199;SDS011;3641;49.082;8.200;2023-11-19T10:31:13;2.92;;;1.10;;
7199;SDS011;3641;49.082;8.200;2023-11-19T10:33:39;3.95;;;1.23;;
7199;SDS011;3641;49.082;8.200;2023-11-19T10:36:06;3.75;;;1.30;;
7199;SDS011;3641;49.082;8.200;2023-11-19T10:38:33;3.75;;;1.10;;
7199;SDS011;3641;49.082;8.200;2023-11-19T10:41:01;4.03;;;1.20;;
7199;SDS011;3641;49.082;8.200;2023-11-19T10:43:28;4.68;;;1.15;;
7199;SDS011;3641;49.082;8.200;2023-11-19T10:45:54;2.22;;;0.90;;
7199;SDS011;3641;49.082;8.200;2023-11-19T10:48:35;2.92;;;0.90;;
7199;SDS011;3641;49.082;8.200;2023-11-19T10:51:01;2.63;;;1.02;;
7199;SDS011;3641;49.082;8.200;2023-11-19T10:53:32;2.28;;;1.10;;
7199;SDS011;3641;49.082;8.200;2023-11-19T10:56:03;4.32;;;1.30;;
7199;SDS011;3641;49.082;8.200;2023-11-19T10:58:33;6.47;;;1.40;;
7199;SDS011;3641;49.082;8.200;2023-11-19T11:01:03;5.38;;;1.50;;
7199;SDS011;3641;49.082;8.200;2023-11-19T11:03:37;7.22;;;1.20;;
7199;SDS011;3641;49.082;8.200;2023-11-19T11:06:06;3.03;;;0.93;;
7199;SDS011;3641;49.082;8.200;2023-11-19T11:08:34;3.42;;;0.95;;
7199;SDS011;3641;49.082;8.200;2023-11-19T11:11:05;5.18;;;1.10;;
7199;SDS011;3641;49.082;8.200;2023-11-19T11:13:33;3.80;;;1.00;;
7199;SDS011;3641;49.082;8.200;2023-11-19T11:16:01;7.47;;;1.25;;
7199;SDS011;3641;49.082;8.200;2023-11-19T11:18:31;4.65;;;1.30;;
7199;SDS011;3641;49.082;8.200;2023-11-19T11:20:59;5.00;;;1.10;;
7199;SDS011;3641;49.082;8.200;2023-11-19T11:23:37;2.58;;;1.00;;
7199;SDS011;3641;49.082;8.200;2023-11-19T11:29:20;3.67;;;0.95;;
7199;SDS011;3641;49.082;8.200;2023-11-19T11:31:55;2.42;;;0.98;;
7199;SDS011;3641;49.082;8.200;2023-11-19T11:34:32;2.45;;;0.85;;
7199;SDS011;3641;49.082;8.200;2023-11-19T11:37:18;4.70;;;1.60;;
7199;SDS011;3641;49.082;8.200;2023-11-19T11:39:49;3.28;;;0.98;;
7199;SDS011;3641;49.082;8.200;2023-11-19T11:42:33;6.93;;;1.20;;
7199;SDS011;3641;49.082;8.200;2023-11-19T11:45:00;4.57;;;0.90;;
7199;SDS011;3641;49.082;8.200;2023-11-19T11:50:48;1.85;;;1.00;;
7199;SDS011;3641;49.082;8.200;2023-11-19T11:53:16;5.32;;;1.38;;
7199;SDS011;3641;49.082;8.200;2023-11-19T11:55:54;2.10;;;1.08;;
7199;SDS011;3641;49.082;8.200;2023-11-19T11:58:29;4.45;;;1.00;;
7199;SDS011;3641;49.082;8.200;2023-11-19T12:01:01;2.83;;;1.00;;
7199;SDS011;3641;49.082;8.200;2023-11-19T12:03:30;4.30;;;0.85;;
7199;SDS011;3641;49.082;8.200;2023-11-19T12:05:58;3.03;;;0.90;;
7199;SDS011;3641;49.082;8.200;2023-11-19T12:08:25;4.55;;;0.85;;
7199;SDS011;3641;49.082;8.200;2023-11-19T12:10:53;3.47;;;1.63;;
7199;SDS011;3641;49.082;8.200;2023-11-19T12:13:23;2.85;;;1.05;;
7199;SDS011;3641;49.082;8.200;2023-11-19T12:16:09;4.32;;;1.30;;
7199;SDS011;3641;49.082;8.200;2023-11-19T12:18:38;4.03;;;0.90;;
7199;SDS011;3641;49.082;8.200;2023-11-19T12:21:06;2.55;;;1.00;;
7199;SDS011;3641;49.082;8.200;2023-11-19T12:23:34;1.90;;;0.90;;
7199;SDS011;3641;49.082;8.200;2023-11-19T12:26:01;4.30;;;1.20;;
7199;SDS011;3641;49.082;8.200;2023-11-19T12:28:28;4.90;;;1.35;;
7199;SDS011;3641;49.082;8.200;2023-11-19T12:31:06;2.75;;;1.00;;
7199;SDS011;3641;49.082;8.200;2023-11-19T12:33:36;3.35;;;1.00;;
7199;SDS011;3641;49.082;8.200;2023-11-19T12:36:04;3.13;;;0.95;;
7199;SDS011;3641;49.082;8.200;2023-11-19T12:38:31;3.38;;;0.90;;
7199;SDS011;3641;49.082;8.200;2023-11-19T12:41:04;2.47;;;1.00;;
7199;SDS011;3641;49.082;8.200;2023-11-19T12:43:31;2.75;;;1.20;;
7199;SDS011;3641;49.082;8.200;2023-11-19T12:45:59;3.70;;;1.02;;
7199;SDS011;3641;49.082;8.200;2023-11-19T12:48:25;5.80;;;1.10;;
7199;SDS011;3641;49.082;8.200;2023-11-19T12:50:53;5.18;;;1.23;;
7199;SDS011;3641;49.082;8.200;2023-11-19T12:53:21;2.80;;;1.00;;
7199;SDS011;3641;49.082;8.200;2023-11-19T12:55:47;4.50;;;1.00;;
7199;SDS011;3641;49.082;8.200;2023-11-19T12:58:29;1.55;;;0.88;;
7199;SDS011;3641;49.082;8.200;2023-11-19T13:01:00;3.38;;;1.20;;
7199;SDS011;3641;49.082;8.200;2023-11-19T13:03:31;4.72;;;1.42;;
7199;SDS011;3641;49.082;8.200;2023-11-19T13:06:03;4.47;;;1.40;;
7199;SDS011;3641;49.082;8.200;2023-11-19T13:08:35;1.35;;;0.80;;
7199;SDS011;3641;49.082;8.200;2023-11-19T13:11:02;3.50;;;1.25;;
7199;SDS011;3641;49.082;8.200;2023-11-19T13:13:29;7.13;;;1.10;;
7199;SDS011;3641;49.082;8.200;2023-11-19T13:16:01;4.88;;;1.10;;
7199;SDS011;3641;49.082;8.200;2023-11-19T13:18:28;4.20;;;1.13;;
7199;SDS011;3641;49.082;8.200;2023-11-19T13:20:55;3.80;;;1.25;;
7199;SDS011;3641;49.082;8.200;2023-11-19T13:23:23;3.83;;;1.35;;
7199;SDS011;3641;49.082;8.200;2023-11-19T13:25:50;3.55;;;1.23;;
7199;SDS011;3641;49.082;8.200;2023-11-19T13:28:16;4.35;;;1.52;;
7199;SDS011;3641;49.082;8.200;2023-11-19T13:30:42;6.30;;;1.70;;
7199;SDS011;3641;49.082;8.200;2023-11-19T13:33:09;4.93;;;1.67;;
7199;SDS011;3641;49.082;8.200;2023-11-19T13:35:37;3.00;;;1.30;;
7199;SDS011;3641;49.082;8.200;2023-11-19T13:38:05;4.57;;;1.58;;
7199;SDS011;3641;49.082;8.200;2023-11-19T13:40:33;4.10;;;1.20;;
7199;SDS011;3641;49.082;8.200;2023-11-19T13:42:59;4.28;;;1.30;;
7199;SDS011;3641;49.082;8.200;2023-11-19T13:45:26;4.53;;;1.23;;
7199;SDS011;3641;49.082;8.200;2023-11-19T13:47:52;3.05;;;1.20;;
7199;SDS011;3641;49.082;8.200;2023-11-19T13:50:19;3.55;;;1.10;;
7199;SDS011;3641;49.082;8.200;2023-11-19T13:52:45;3.28;;;1.25;;
7199;SDS011;3641;49.082;8.200;2023-11-19T13:55:12;2.97;;;1.55;;
7199;SDS011;3641;49.082;8.200;2023-11-19T13:57:41;5.40;;;1.25;;
7199;SDS011;3641;49.082;8.200;2023-11-19T14:00:09;7.10;;;1.20;;
7199;SDS011;3641;49.082;8.200;2023-11-19T14:02:38;4.68;;;1.20;;
7199;SDS011;3641;49.082;8.200;2023-11-19T14:05:05;4.03;;;1.10;;
7199;SDS011;3641;49.082;8.200;2023-11-19T14:07:31;2.08;;;1.00;;
7199;SDS011;3641;49.082;8.200;2023-11-19T14:09:58;4.15;;;1.00;;
7199;SDS011;3641;49.082;8.200;2023-11-19T14:12:25;4.18;;;1.30;;
7199;SDS011;3641;49.082;8.200;2023-11-19T14:14:52;3.10;;;1.25;;
7199;SDS011;3641;49.082;8.200;2023-11-19T14:17:20;4.53;;;1.40;;
7199;SDS011;3641;49.082;8.200;2023-11-19T14:19:46;6.90;;;1.65;;
7199;SDS011;3641;49.082;8.200;2023-11-19T14:22:13;2.00;;;1.05;;
7199;SDS011;3641;49.082;8.200;2023-11-19T14:24:39;7.25;;;1.58;;
7199;SDS011;3641;49.082;8.200;2023-11-19T14:27:07;5.00;;;1.20;;
7199;SDS011;3641;49.082;8.200;2023-11-19T14:29:33;4.65;;;0.95;;
7199;SDS011;3641;49.082;8.200;2023-11-19T14:32:03;4.70;;;0.95;;
7199;SDS011;3641;49.082;8.200;2023-11-19T14:34:29;3.70;;;1.10;;
7199;SDS011;3641;49.082;8.200;2023-11-19T14:36:57;3.75;;;1.20;;
7199;SDS011;3641;49.082;8.200;2023-11-19T14:39:23;4.00;;;0.88;;
7199;SDS011;3641;49.082;8.200;2023-11-19T14:41:50;3.60;;;1.08;;
7199;SDS011;3641;49.082;8.200;2023-11-19T14:44:17;5.00;;;1.23;;
7199;SDS011;3641;49.082;8.200;2023-11-19T14:46:45;3.90;;;1.05;;
7199;SDS011;3641;49.082;8.200;2023-11-19T14:49:13;4.07;;;1.38;;
7199;SDS011;3641;49.082;8.200;2023-11-19T14:51:40;3.63;;;1.20;;
7199;SDS011;3641;49.082;8.200;2023-11-19T14:54:06;7.47;;;1.52;;
7199;SDS011;3641;49.082;8.200;2023-11-19T14:56:35;5.05;;;1.35;;
7199;SDS011;3641;49.082;8.200;2023-11-19T14:59:03;4.20;;;1.48;;
7199;SDS011;3641;49.082;8.200;2023-11-19T15:01:30;4.35;;;1.65;;
7199;SDS011;3641;49.082;8.200;2023-11-19T15:03:56;4.43;;;1.25;;
7199;SDS011;3641;49.082;8.200;2023-11-19T15:06:26;7.30;;;1.52;;
7199;SDS011;3641;49.082;8.200;2023-11-19T15:08:55;4.60;;;1.27;;
7199;SDS011;3641;49.082;8.200;2023-11-19T15:11:21;3.88;;;1.35;;
7199;SDS011;3641;49.082;8.200;2023-11-19T15:13:48;7.40;;;1.58;;
7199;SDS011;3641;49.082;8.200;2023-11-19T15:16:20;6.18;;;1.30;;
7199;SDS011;3641;49.082;8.200;2023-11-19T15:18:58;6.82;;;1.48;;
7199;SDS011;3641;49.082;8.200;2023-11-19T15:21:28;5.45;;;1.40;;
7199;SDS011;3641;49.082;8.200;2023-11-19T15:23:57;3.63;;;1.30;;
7199;SDS011;3641;49.082;8.200;2023-11-19T15:26:24;3.85;;;1.30;;
7199;SDS011;3641;49.082;8.200;2023-11-19T15:28:53;4.78;;;1.40;;